createdAt,value
2022-12-19T00:01:58.800Z,100233.00
2022-12-19T00:04:26.843Z,100237.69
2022-12-19T00:06:55.033Z,100243.06
2022-12-19T00:09:22.930Z,100238.69
2022-12-19T00:11:50.858Z,100230.75
2022-12-19T00:14:18.791Z,100249.50
2022-12-19T00:16:48.108Z,100239.63
2022-12-19T00:19:16.054Z,100238.03
2022-12-19T00:21:43.924Z,100236.22
2022-12-19T00:24:21.133Z,100237.09
2022-12-19T00:26:49.730Z,100246.81
2022-12-19T00:29:17.672Z,100242.44
2022-12-19T00:31:47.018Z,100252.28
2022-12-19T00:34:15.519Z,100245.13
2022-12-19T00:36:43.389Z,100242.31
2022-12-19T00:39:11.822Z,100227.19
2022-12-19T00:41:42.130Z,100234.28
2022-12-19T00:44:11.665Z,100235.03
2022-12-19T00:46:39.591Z,100237.69
2022-12-19T00:49:08.824Z,100234.16
2022-12-19T00:51:37.854Z,100225.91
2022-12-19T00:54:07.317Z,100231.88
2022-12-19T00:56:37.724Z,100227.63
2022-12-19T00:59:06.310Z,100217.88
2022-12-19T01:01:35.939Z,100230.41
2022-12-19T01:04:27.857Z,100219.34
2022-12-19T01:06:53.552Z,100214.84
2022-12-19T01:09:21.800Z,100206.59
2022-12-19T01:12:07.301Z,100216.44
2022-12-19T01:14:35.237Z,100220.94
2022-12-19T01:17:03.138Z,100209.38
2022-12-19T01:19:35.148Z,100214.63
2022-12-19T01:22:07.001Z,100217.19
2022-12-19T01:24:35.375Z,100203.19
2022-12-19T01:27:03.261Z,100226.09
2022-12-19T01:29:31.166Z,100229.72
2022-12-19T01:32:01.170Z,100228.03
2022-12-19T01:34:29.092Z,100226.09
2022-12-19T01:36:57.035Z,100215.59
2022-12-19T01:39:27.552Z,100229.97
2022-12-19T01:41:58.841Z,100215.72
2022-12-19T01:44:27.028Z,100225.44
2022-12-19T01:46:57.545Z,100241.53
2022-12-19T01:49:27.763Z,100246.88
2022-12-19T01:51:56.723Z,100220.94
2022-12-19T01:54:28.038Z,100220.94
2022-12-19T01:56:57.015Z,100227.28
2022-12-19T01:59:26.806Z,100231.53
2022-12-19T02:01:56.431Z,100223.75
2022-12-19T02:04:24.897Z,100230.72
2022-12-19T02:06:55.190Z,100231.53
2022-12-19T02:09:25.698Z,100233.28
2022-12-19T02:11:54.946Z,100235.22
2022-12-19T02:14:22.874Z,100226.31
2022-12-19T02:16:56.564Z,100221.81
2022-12-19T02:20:00.013Z,100218.06
2022-12-19T02:22:29.499Z,100219.13
2022-12-19T02:25:18.906Z,100213.66
2022-12-19T02:28:08.834Z,100207.34
2022-12-19T02:30:46.527Z,100212.78
2022-12-19T02:33:17.380Z,100209.88
2022-12-19T02:35:46.541Z,100206.47
2022-12-19T02:38:17.379Z,100213.19
2022-12-19T02:40:46.538Z,100214.03
2022-12-19T02:43:17.923Z,100207.47
2022-12-19T02:45:47.221Z,100202.84
2022-12-19T02:48:19.242Z,100201.78
2022-12-19T02:50:50.470Z,100194.94
2022-12-19T02:53:23.491Z,100204.72
2022-12-19T02:55:56.876Z,100205.78
2022-12-19T02:58:33.823Z,100217.59
2022-12-19T03:01:09.006Z,100215.03
2022-12-19T03:03:41.354Z,100212.44
2022-12-19T03:06:13.685Z,100206.25
2022-12-19T03:08:53.439Z,100213.44
2022-12-19T03:11:21.298Z,100207.09
2022-12-19T03:13:51.241Z,100200.78
2022-12-19T03:16:20.588Z,100200.91
2022-12-19T03:18:48.492Z,100204.41
2022-12-19T03:21:18.966Z,100209.56
2022-12-19T03:23:46.887Z,100200.66
2022-12-19T03:26:17.321Z,100193.34
2022-12-19T03:28:46.764Z,100201.28
2022-12-19T03:31:15.199Z,100199.34
2022-12-19T03:33:44.483Z,100200.31
2022-12-19T03:36:15.504Z,100206.41
2022-12-19T03:38:44.717Z,100198.34
2022-12-19T03:41:13.083Z,100192.38
2022-12-19T03:43:39.990Z,100197.28
2022-12-19T03:46:14.030Z,100206.31
2022-12-19T03:48:45.335Z,100199.22
2022-12-19T03:51:18.505Z,100192.91
2022-12-19T03:53:50.432Z,100191.78
2022-12-19T03:56:21.276Z,100194.38
2022-12-19T03:58:51.081Z,100180.72
2022-12-19T04:01:19.435Z,100181.59
2022-12-19T04:03:48.904Z,100201.09
2022-12-19T04:06:16.879Z,100205.38
2022-12-19T04:08:44.771Z,100174.78
2022-12-19T04:11:16.273Z,100172.84
2022-12-19T04:13:45.120Z,100175.66
2022-12-19T04:16:14.706Z,100178.34
2022-12-19T04:18:42.924Z,100172.25
2022-12-19T04:21:14.160Z,100173.19
2022-12-19T04:23:43.901Z,100172.97
2022-12-19T04:26:11.907Z,100173.59
2022-12-19T04:28:41.642Z,100181.88
2022-12-19T04:31:09.553Z,100167.38
2022-12-19T04:33:37.501Z,100166.25
2022-12-19T04:36:06.029Z,100161.91
2022-12-19T04:38:35.325Z,100153.00
2022-12-19T04:41:03.237Z,100152.03
2022-12-19T04:43:31.126Z,100150.84
2022-12-19T04:45:59.019Z,100146.06
2022-12-19T04:48:27.058Z,100155.72
2022-12-19T04:50:54.981Z,100161.81
2022-12-19T04:53:22.877Z,100159.00
2022-12-19T04:55:52.220Z,100164.13
2022-12-19T04:58:22.075Z,100155.13
2022-12-19T05:00:50.071Z,100137.94
2022-12-19T05:03:17.988Z,100149.00
2022-12-19T05:05:45.908Z,100155.31
2022-12-19T05:08:13.774Z,100146.25
2022-12-19T05:10:41.705Z,100131.84
2022-12-19T05:13:11.303Z,100139.50
2022-12-19T05:15:39.548Z,100137.31
2022-12-19T05:18:07.480Z,100136.44
2022-12-19T05:20:35.395Z,100137.66
2022-12-19T05:23:06.625Z,100124.59
2022-12-19T05:25:37.496Z,100125.47
2022-12-19T05:28:05.791Z,100121.91
2022-12-19T05:30:35.077Z,100134.44
2022-12-19T05:33:02.989Z,100115.47
2022-12-19T05:35:30.919Z,100130.44
2022-12-19T05:37:58.814Z,100119.72
2022-12-19T05:40:26.739Z,100115.97
2022-12-19T05:42:54.627Z,100123.78
2022-12-19T05:45:22.660Z,100125.25
2022-12-19T05:47:51.929Z,100126.84
2022-12-19T05:50:19.836Z,100133.94
2022-12-19T05:52:47.724Z,100127.47
2022-12-19T05:55:15.617Z,100126.38
2022-12-19T05:57:43.518Z,100126.38
2022-12-19T06:00:12.608Z,100122.97
2022-12-19T06:02:40.632Z,100116.84
2022-12-19T06:05:10.442Z,100123.94
2022-12-19T06:07:38.741Z,100121.75
2022-12-19T06:10:07.625Z,100122.84
2022-12-19T06:12:35.561Z,100131.50
2022-12-19T06:15:03.432Z,100126.88
2022-12-19T06:17:31.469Z,100123.34
2022-12-19T06:19:59.362Z,100120.78
2022-12-19T06:22:28.627Z,100119.94
2022-12-19T06:24:56.534Z,100133.47
2022-12-19T06:27:24.436Z,100129.78
2022-12-19T06:29:52.328Z,100122.72
2022-12-19T06:32:20.254Z,100133.47
2022-12-19T06:35:03.599Z,100151.13
2022-12-19T06:37:33.614Z,100150.28
2022-12-19T06:40:01.598Z,100140.50
2022-12-19T06:42:28.514Z,100137.09
2022-12-19T06:44:56.711Z,100143.53
2022-12-19T06:47:24.789Z,100136.25
2022-12-19T06:49:52.708Z,100129.06
2022-12-19T06:52:20.660Z,100131.50
2022-12-19T06:54:49.947Z,100146.63
2022-12-19T06:57:17.827Z,100131.50
2022-12-19T06:59:45.789Z,100132.25
2022-12-19T07:02:22.795Z,100132.97
2022-12-19T07:04:52.386Z,100124.19
2022-12-19T07:07:20.573Z,100120.56
2022-12-19T07:09:49.841Z,100115.94
2022-12-19T07:12:17.744Z,100127.50
2022-12-19T07:14:50.170Z,100122.13
2022-12-19T07:17:21.001Z,100132.84
2022-12-19T07:19:51.435Z,100125.81
2022-12-19T07:22:19.370Z,100119.34
2022-12-19T07:24:47.278Z,100114.84
2022-12-19T07:27:16.690Z,100121.69
2022-12-19T07:29:44.699Z,100117.78
2022-12-19T07:32:12.677Z,100123.28
2022-12-19T07:34:40.575Z,100118.66
2022-12-19T07:37:08.614Z,100117.44
2022-12-19T07:39:36.515Z,100108.41
2022-12-19T07:42:04.622Z,100116.34
2022-12-19T07:44:33.988Z,100106.56
2022-12-19T07:47:01.909Z,100114.41
2022-12-19T07:49:30.123Z,100111.94
2022-12-19T07:51:58.068Z,100111.94
2022-12-19T07:54:25.999Z,100113.88
2022-12-19T07:56:53.907Z,100111.44
2022-12-19T07:59:27.161Z,100114.50
2022-12-19T08:01:59.157Z,100106.47
2022-12-19T08:04:27.320Z,100113.50
2022-12-19T08:06:55.204Z,100109.13
2022-12-19T08:09:23.109Z,100116.41
2022-12-19T08:11:50.960Z,100121.91
2022-12-19T08:14:19.009Z,100114.50
2022-12-19T08:17:18.642Z,100122.28
2022-12-19T08:19:36.148Z,100123.50
2022-12-19T08:22:04.323Z,100101.31
2022-12-19T08:24:32.189Z,100105.34
2022-12-19T08:27:00.137Z,100097.56
2022-12-19T08:29:28.053Z,100119.00
2022-12-19T08:31:55.945Z,100104.97
2022-12-19T08:34:23.812Z,100097.78
2022-12-19T08:36:53.215Z,100093.41
2022-12-19T08:39:21.124Z,100094.34
2022-12-19T08:41:49.020Z,100096.31
2022-12-19T08:44:17.333Z,100094.59
2022-12-19T08:46:50.040Z,100096.44
2022-12-19T08:49:18.952Z,100119.69
2022-12-19T08:51:47.328Z,100086.66
2022-12-19T08:54:16.678Z,100084.72
2022-12-19T08:56:46.618Z,100088.78
2022-12-19T08:59:18.489Z,100085.84
2022-12-19T09:01:58.820Z,100078.66
2022-12-19T09:05:58.654Z,100077.06
2022-12-19T09:07:15.714Z,100066.09
2022-12-19T09:09:45.418Z,100070.47
2022-12-19T09:12:13.626Z,100056.25
2022-12-19T09:14:41.563Z,100059.16
2022-12-19T09:17:10.115Z,100047.06
2022-12-19T09:19:38.047Z,100056.94
2022-12-19T09:22:06.979Z,100064.13
2022-12-19T09:24:34.895Z,100065.00
2022-12-19T09:27:04.164Z,100046.97
2022-12-19T09:29:35.574Z,100036.22
2022-12-19T09:32:03.790Z,100055.88
2022-12-19T09:34:38.391Z,100029.78
2022-12-19T09:37:07.721Z,100021.59
2022-12-19T09:39:36.369Z,100043.19
2022-12-19T09:42:41.311Z,100030.88
2022-12-19T09:45:35.523Z,100038.75
2022-12-19T09:48:03.438Z,100023.03
2022-12-19T09:50:44.767Z,100024.50
2022-12-19T09:53:17.970Z,100023.06
2022-12-19T09:55:45.995Z,100029.41
2022-12-19T09:58:17.582Z,100021.22
2022-12-19T10:00:46.278Z,100023.31
2022-12-19T10:03:19.679Z,100028.56
2022-12-19T10:06:25.505Z,100024.53
2022-12-19T10:08:46.298Z,100020.53
2022-12-19T10:12:39.583Z,100034.91
2022-12-19T10:14:34.509Z,100033.81
2022-12-19T10:17:24.082Z,100043.66
2022-12-19T10:20:20.441Z,100044.41
2022-12-19T10:22:57.804Z,100040.25
2022-12-19T10:25:41.229Z,100048.31
2022-12-19T10:28:18.508Z,100058.06
2022-12-19T10:30:51.065Z,100056.84
2022-12-19T10:33:22.584Z,100071.72
2022-12-19T10:35:54.694Z,100060.13
2022-12-19T10:38:25.999Z,100060.63
2022-12-19T10:40:56.367Z,100049.56
2022-12-19T10:43:33.663Z,100072.41
2022-12-19T10:46:16.123Z,100054.22
2022-12-19T10:48:44.049Z,100053.97
2022-12-19T10:51:13.863Z,100058.09
2022-12-19T10:53:41.836Z,100062.47
2022-12-19T10:56:14.096Z,100058.66
2022-12-19T10:58:43.869Z,100059.38
2022-12-19T11:01:14.554Z,100054.50
2022-12-19T11:03:43.599Z,100060.88
2022-12-19T11:06:43.255Z,100064.66
2022-12-19T11:09:25.095Z,100068.22
2022-12-19T11:16:46.275Z,100090.53
2022-12-19T11:21:39.095Z,100057.81
2022-12-19T11:22:16.956Z,100076.47
2022-12-19T11:29:19.366Z,100058.53
2022-12-19T11:30:07.043Z,100066.59
2022-12-19T11:30:35.537Z,100057.81
2022-12-19T11:30:45.727Z,100061.47
2022-12-19T11:34:35.662Z,100060.59
2022-12-19T11:37:08.122Z,100071.47
2022-12-19T11:39:38.544Z,100070.50
2022-12-19T11:42:09.490Z,100076.00
2022-12-19T11:44:39.743Z,100085.28
2022-12-19T11:47:13.347Z,100076.28
2022-12-19T11:49:44.014Z,100084.09
2022-12-19T11:53:01.814Z,100086.78
2022-12-19T11:55:06.386Z,100068.63
2022-12-19T11:57:34.295Z,100071.91
2022-12-19T12:00:05.460Z,100071.31
2022-12-19T12:03:05.885Z,100074.81
2022-12-19T12:05:45.269Z,100073.84
2022-12-19T12:10:16.185Z,100070.09
2022-12-19T12:18:07.452Z,100073.88
2022-12-19T12:22:18.275Z,100075.09
2022-12-19T12:31:21.569Z,100082.63
2022-12-19T12:31:26.003Z,100071.31
2022-12-19T12:31:31.631Z,100060.94
2022-12-19T12:31:50.062Z,100069.81
2022-12-19T12:32:05.580Z,100064.44
2022-12-19T12:35:33.434Z,100067.63
2022-12-19T12:36:56.033Z,100065.78
2022-12-19T12:40:55.402Z,100068.97
2022-12-19T12:43:31.776Z,100081.28
2022-12-19T12:45:59.705Z,100068.00
2022-12-19T12:48:30.135Z,100074.09
2022-12-19T12:50:58.080Z,100074.00
2022-12-19T12:53:29.101Z,100085.56
2022-12-19T12:55:58.448Z,100077.78
2022-12-19T12:58:46.317Z,100080.09
2022-12-19T13:01:17.899Z,100087.28
2022-12-19T13:03:52.850Z,100083.59
2022-12-19T13:06:25.973Z,100078.84
2022-12-19T13:08:53.947Z,100075.31
2022-12-19T13:11:55.776Z,100080.41
2022-12-19T13:14:48.491Z,100081.72
2022-12-19T13:17:20.072Z,100079.38
2022-12-19T13:19:57.614Z,100075.94
2022-12-19T13:22:40.814Z,100085.34
2022-12-19T13:25:45.931Z,100108.66
2022-12-19T13:28:42.558Z,100119.53
2022-12-19T13:31:23.608Z,100108.91
2022-12-19T13:34:19.362Z,100103.06
2022-12-19T13:39:52.338Z,100096.13
2022-12-19T13:39:54.295Z,100096.19
2022-12-19T13:42:51.181Z,100098.97
2022-12-19T13:45:26.374Z,100115.75
2022-12-19T13:47:54.657Z,100108.19
2022-12-19T13:50:25.025Z,100109.41
2022-12-19T13:52:53.023Z,100112.81
2022-12-19T13:55:21.059Z,100106.22
2022-12-19T13:57:49.312Z,100096.94
2022-12-19T14:00:19.153Z,100102.53
2022-12-19T14:02:50.982Z,100106.03
2022-12-19T14:05:33.915Z,100111.84
2022-12-19T14:08:14.548Z,100124.13
2022-12-19T14:11:35.579Z,100113.31
2022-12-19T14:14:03.245Z,100114.75
2022-12-19T14:16:43.563Z,100124.59
2022-12-19T14:19:21.810Z,100120.47
2022-12-19T14:22:11.900Z,100143.47
2022-12-19T14:24:37.590Z,100135.19
2022-12-19T14:28:19.581Z,100130.66
2022-12-19T14:30:27.942Z,100125.03
2022-12-19T14:33:39.753Z,100124.69
2022-12-19T14:36:07.778Z,100144.03
2022-12-19T14:39:25.720Z,100130.13
2022-12-19T14:41:40.325Z,100141.13
2022-12-19T14:52:35.073Z,100143.88
2022-12-19T14:54:11.819Z,100143.91
2022-12-19T14:54:16.720Z,100151.63
2022-12-19T14:54:23.893Z,100145.03
2022-12-19T14:56:13.011Z,100140.78
2022-12-19T14:58:52.928Z,100156.69
2022-12-19T15:01:24.183Z,100154.50
2022-12-19T15:04:51.085Z,100149.84
2022-12-19T15:07:09.331Z,100156.56
2022-12-19T15:10:58.787Z,100174.28
2022-12-19T15:14:50.734Z,100155.97
2022-12-19T15:15:38.947Z,100167.94
2022-12-19T15:18:19.455Z,100171.47
2022-12-19T15:20:47.367Z,100162.81
2022-12-19T15:23:21.472Z,100167.44
2022-12-19T15:26:07.987Z,100172.09
2022-12-19T15:28:39.933Z,100167.59
2022-12-19T15:31:16.465Z,100175.75
2022-12-19T15:34:14.243Z,100176.38
2022-12-19T15:36:32.772Z,100178.19
2022-12-19T15:39:00.723Z,100176.38
2022-12-19T15:41:29.976Z,100179.06
2022-12-19T15:44:05.711Z,100165.72
2022-12-19T15:46:34.116Z,100177.47
2022-12-19T15:49:02.374Z,100193.94
2022-12-19T15:51:30.391Z,100190.38
2022-12-19T15:54:15.587Z,100189.66
2022-12-19T15:56:49.318Z,100184.50
2022-12-19T15:59:24.345Z,100175.63
2022-12-19T16:01:52.364Z,100172.53
2022-12-19T16:04:20.592Z,100168.03
2022-12-19T16:06:48.582Z,100168.16
2022-12-19T16:09:21.190Z,100164.63
2022-12-19T16:11:50.577Z,100153.88
2022-12-19T16:14:18.518Z,100172.06
2022-12-19T16:16:47.021Z,100176.81
2022-12-19T16:19:24.504Z,100165.72
2022-12-19T16:21:52.568Z,100168.53
2022-12-19T16:24:20.500Z,100172.31
2022-12-19T16:26:53.073Z,100172.06
2022-12-19T16:29:21.774Z,100177.78
2022-12-19T16:31:49.745Z,100179.22
2022-12-19T16:34:19.354Z,100171.66
2022-12-19T16:36:47.330Z,100167.84
2022-12-19T16:39:15.593Z,100176.59
2022-12-19T16:41:43.755Z,100172.03
2022-12-19T16:44:19.543Z,100169.09
2022-12-19T16:46:50.969Z,100172.72
2022-12-19T16:49:19.927Z,100175.75
2022-12-19T16:51:48.426Z,100186.84
2022-12-19T16:54:16.687Z,100188.78
2022-12-19T16:56:45.290Z,100177.44
2022-12-19T16:59:16.745Z,100180.34
2022-12-19T17:01:45.101Z,100172.28
2022-12-19T17:04:14.813Z,100173.03
2022-12-19T17:06:43.002Z,100168.66
2022-12-19T17:09:13.686Z,100174.75
2022-12-19T17:11:41.620Z,100170.47
2022-12-19T17:14:12.646Z,100168.78
2022-12-19T17:16:41.955Z,100171.47
2022-12-19T17:19:10.389Z,100170.59
2022-12-19T17:21:39.345Z,100174.03
2022-12-19T17:24:10.450Z,100167.56
2022-12-19T17:26:38.402Z,100167.66
2022-12-19T17:29:07.526Z,100156.94
2022-12-19T17:31:38.265Z,100150.75
2022-12-19T17:34:09.395Z,100156.13
2022-12-19T17:36:38.199Z,100158.66
2022-12-19T17:39:11.964Z,100156.22
2022-12-19T17:41:39.938Z,100157.19
2022-12-19T17:44:07.840Z,100154.59
2022-12-19T17:46:35.745Z,100164.94
2022-12-19T17:49:03.723Z,100166.66
2022-12-19T17:51:33.007Z,100167.63
2022-12-19T17:54:00.978Z,100173.97
2022-12-19T17:56:29.722Z,100167.00
2022-12-19T17:58:57.598Z,100162.59
2022-12-19T18:01:25.630Z,100172.59
2022-12-19T18:03:54.010Z,100175.16
2022-12-19T18:06:21.980Z,100170.75
2022-12-19T18:08:51.264Z,100161.03
2022-12-19T18:11:20.212Z,100172.59
2022-12-19T18:13:48.141Z,100165.53
2022-12-19T18:16:18.329Z,100164.78
2022-12-19T18:18:46.649Z,100167.34
2022-12-19T18:21:16.353Z,100163.81
2022-12-19T18:23:44.277Z,100165.75
2022-12-19T18:26:13.670Z,100169.41
2022-12-19T18:28:41.673Z,100165.00
2022-12-19T18:31:14.591Z,100163.06
2022-12-19T18:33:43.364Z,100165.88
2022-12-19T18:36:16.687Z,100155.28
2022-12-19T18:38:44.967Z,100158.06
2022-12-19T18:41:14.441Z,100162.66
2022-12-19T18:43:42.427Z,100162.78
2022-12-19T18:46:12.923Z,100156.91
2022-12-19T18:48:40.979Z,100164.44
2022-12-19T18:51:11.859Z,100158.75
2022-12-19T18:53:39.897Z,100167.25
2022-12-19T18:56:08.127Z,100166.59
2022-12-19T18:58:37.406Z,100153.13
2022-12-19T19:01:06.684Z,100161.03
2022-12-19T19:03:36.429Z,100162.84
2022-12-19T19:06:05.487Z,100163.09
2022-12-19T19:08:34.190Z,100163.44
2022-12-19T19:11:02.234Z,100162.03
2022-12-19T19:13:31.483Z,100172.88
2022-12-19T19:16:01.980Z,100166.03
2022-12-19T19:18:33.761Z,100162.56
2022-12-19T19:21:02.166Z,100146.63
2022-12-19T19:23:33.559Z,100155.75
2022-12-19T19:26:01.453Z,100146.34
2022-12-19T19:28:29.373Z,100162.28
2022-12-19T19:30:57.470Z,100156.31
2022-12-19T19:33:28.177Z,100153.97
2022-12-19T19:35:58.336Z,100146.44
2022-12-19T19:38:26.392Z,100151.78
2022-12-19T19:40:54.508Z,100148.38
2022-12-19T19:43:22.423Z,100155.56
2022-12-19T19:45:51.450Z,100154.91
2022-12-19T19:48:19.415Z,100145.06
2022-12-19T19:50:49.303Z,100151.50
2022-12-19T19:53:17.499Z,100147.34
2022-12-19T19:55:45.518Z,100162.22
2022-12-19T19:58:13.693Z,100161.56
2022-12-19T20:00:41.885Z,100166.19
2022-12-19T20:03:12.810Z,100172.09
2022-12-19T20:05:44.217Z,100161.91
2022-12-19T20:08:13.865Z,100161.69
2022-12-19T20:10:41.766Z,100168.75
2022-12-19T20:13:11.287Z,100170.91
2022-12-19T20:15:44.449Z,100195.16
2022-12-19T20:18:15.950Z,100182.44
2022-12-19T20:20:44.061Z,100184.88
2022-12-19T20:23:13.703Z,100186.91
2022-12-19T20:25:43.202Z,100179.19
2022-12-19T20:28:11.230Z,100181.00
2022-12-19T20:30:39.559Z,100177.59
2022-12-19T20:33:07.912Z,100186.56
2022-12-19T20:35:36.866Z,100183.88
2022-12-19T20:38:05.009Z,100187.31
2022-12-19T20:40:34.311Z,100196.94
2022-12-19T20:43:02.255Z,100193.22
2022-12-19T20:45:30.215Z,100189.47
2022-12-19T20:47:58.219Z,100186.78
2022-12-19T20:50:26.150Z,100189.16
2022-12-19T20:52:54.091Z,100195.28
2022-12-19T20:55:22.187Z,100205.78
2022-12-19T20:57:51.429Z,100201.19
2022-12-19T21:00:20.567Z,100203.75
2022-12-19T21:03:25.802Z,100201.94
2022-12-19T21:05:36.421Z,100196.78
2022-12-19T21:08:04.462Z,100203.00
2022-12-19T21:10:32.432Z,100207.59
2022-12-19T21:13:01.795Z,100209.41
2022-12-19T21:15:29.932Z,100217.19
2022-12-19T21:17:57.782Z,100212.13
2022-12-19T21:20:32.433Z,100210.59
2022-12-19T21:23:02.031Z,100208.53
2022-12-19T21:25:29.975Z,100218.66
2022-12-19T21:27:57.880Z,100215.34
2022-12-19T21:30:27.200Z,100220.88
2022-12-19T21:32:55.636Z,100217.66
2022-12-19T21:35:23.691Z,100217.13
2022-12-19T21:37:52.100Z,100230.53
2022-12-19T21:40:20.503Z,100218.34
2022-12-19T21:42:48.501Z,100225.63
2022-12-19T21:45:16.711Z,100220.56
2022-12-19T21:47:46.032Z,100225.44
2022-12-19T21:50:15.155Z,100222.44
2022-12-19T21:52:43.161Z,100226.34
2022-12-19T21:55:11.459Z,100234.59
2022-12-19T21:57:40.140Z,100229.66
2022-12-19T22:00:09.277Z,100233.50
2022-12-19T22:02:37.386Z,100226.44
2022-12-19T22:05:08.175Z,100224.63
2022-12-19T22:07:36.099Z,100217.38
2022-12-19T22:10:04.059Z,100217.25
2022-12-19T22:12:31.968Z,100212.66
2022-12-19T22:14:59.947Z,100215.91
2022-12-19T22:17:27.947Z,100204.97
2022-12-19T22:19:55.859Z,100211.06
2022-12-19T22:22:25.176Z,100207.53
2022-12-19T22:24:53.154Z,100207.47
2022-12-19T22:27:21.629Z,100200.28
2022-12-19T22:29:49.894Z,100192.19
2022-12-19T22:32:17.826Z,100202.28
2022-12-19T22:34:48.536Z,100207.31
2022-12-19T22:37:16.794Z,100210.63
2022-12-19T22:39:46.104Z,100223.06
2022-12-19T22:42:13.977Z,100225.50
2022-12-19T22:44:41.927Z,100218.91
2022-12-19T22:47:09.868Z,100220.53
2022-12-19T22:49:37.856Z,100225.28
2022-12-19T22:52:06.207Z,100213.31
2022-12-19T22:54:34.093Z,100215.69
2022-12-19T22:57:03.352Z,100209.28
2022-12-19T22:59:31.285Z,100214.44
2022-12-19T23:01:59.355Z,100220.41
2022-12-19T23:04:27.552Z,100224.69
2022-12-19T23:06:55.461Z,100220.41
2022-12-19T23:09:23.429Z,100222.22
2022-12-19T23:11:51.441Z,100221.34
2022-12-19T23:14:20.813Z,100225.94
2022-12-19T23:16:48.812Z,100221.66
2022-12-19T23:19:16.863Z,100221.66
2022-12-19T23:21:44.800Z,100232.47
2022-12-19T23:24:12.802Z,100236.31
2022-12-19T23:26:40.711Z,100232.31
2022-12-19T23:29:09.538Z,100224.50
2022-12-19T23:31:40.441Z,100224.72
2022-12-19T23:34:08.573Z,100216.44
2022-12-19T23:39:24.356Z,100226.56
2022-12-19T23:41:52.268Z,100215.34
2022-12-19T23:44:20.372Z,100222.78
2022-12-19T23:46:49.638Z,100215.94
2022-12-19T23:49:17.608Z,100223.72
2022-12-19T23:51:45.501Z,100231.53
2022-12-19T23:54:13.438Z,100228.59
2022-12-19T23:56:41.334Z,100232.13
2022-12-19T23:59:09.235Z,100240.03
